Cannon Beach, OR (97110)

7:15 AM PDT en Agosto 30, 2014 (GMT -0700)
Seaside - Cove | Change Station
CLOSE
Current Station
Estación meteorológica personal
Location: Seaside, OR
Altura: 23 ft
Estaciones meteorológicas cercanas

Alt 23 ft 45.98 °N, 123.93 °W | Updated 18 seconds ago

Nublado
Nublado
61.2 ° F
Sensación térmica 61.2 ° F
N
6.4
Viento Variable Viento desde ESE
Gusts 6.4 mph

Hoy
Alta -- | Baja -- ° F
--% Posibilidad de precipitaciones
Ayer
Alta -- | Baja -- ° F
Precip. -- pul
6:34 AM 7:57 PM
Creciente, 22% visible
Presión 29.89 pul
Visibilidad 5.0 Millas
Nubes Baja 400 ft
Nublado 2000 ft
Punto de rocío 61 ° F
Humedad 98%
Precipitaciones 0.00 pul
Espesor de la nieve No disponible.
UV 0 de una escala de 12
Polen 2.80 de una escala de 12
Calidad del aire No disponible.
Flu Activity No disponible.
SPECI KAST 301405Z AUTO 00000KT 5SM -RA BR FEW004 OVC020 16/14 A2989 RMK AO2 P0001 T01560144

More Conditions Fewer Conditions

Presión 29.89 pul
Visibilidad 5.0 Millas
Nubes Baja 400 ft
Nublado 2000 ft
Punto de rocío 61 ° F
Humedad 98%
Precipitaciones 0.00 pul
Espesor de la nieve No disponible.
UV 0 de una escala de 12
Polen 2.80 de una escala de 12
Calidad del aire No disponible.
Flu Activity No disponible.
SPECI KAST 301405Z AUTO 00000KT 5SM -RA BR FEW004 OVC020 16/14 A2989 RMK AO2 P0001 T01560144

More Conditions Fewer Conditions

10-Day Weather Forecast

Almanac

Astronomía

Aug. 30, 2014 Salida Puesta
Hora real 6:34 AM PDT 7:57 PM PDT
Crepúsculo civil 6:03 AM PDT 8:28 PM PDT
Crepúsculo náutico 5:25 AM PDT 9:05 PM PDT
Crepúsculo astronómico 4:45 AM PDT 9:45 PM PDT
Luna 11:44 AM PDT 10:17 PM PDT
Horas de luz 14h 25m
Horas de luz
13h 23m
Tomorrow will be 3m 6s shorter.
Creciente, 22% of the Moon is Illuminated
Hoy
Creciente
Sep 2
Cuarto creciente
Sep 8
Luna llena
Sep 15
Cuarto menguante
Sep 24
Nueva

Extremos de hoy

Máximos del estado Bajos del estado

Community

WunderPhotos

Upload Photos

1,748,516 ¡fotos cargadas!

WunderBlogs® & News

By Dr. Jeff Masters
Director of Meteorology, Weather Underground
By Kari Strenfel
Meteorologist, Weather Underground
By Christopher C. Burt
Weather Historian, Weather Underground
August 30, 2014
August 30, 2014
August 30, 2014

Nearby

Grosos de nieve

Estación Profundido Altura
Seine Creek 0 in 2000 ft
North Fork 1 in 3120 ft
Blazed Alder 0 in 3650 ft
Greenpoint 0 in 3200 ft
Red Hill 0 in 4400 ft

Actividad de terremotos

Ciudad Distance Mag. Tiempo y dato
No hay informes recientes de la actividad sísmica.
Magnitud mínima muestra es 2,5.

Temperaturas de aguas costeras

Lugar Temperatura
Astoria, OR 70.0 ° F
Westport, WA 57.0 ° F

Estaciones meteorológicas cercanas